sensor_id;sensor_type;location;lat;lon;timestamp;pressure;altitude;pressure_sealevel;temperature;humidity
45813;BME280;31519;45.408;10.962;2023-09-30T00:00:28;101261.09;;;22.89;55.05
45813;BME280;31519;45.408;10.962;2023-09-30T00:03:17;101274.09;;;22.73;55.18
45813;BME280;31519;45.408;10.962;2023-09-30T00:05:45;101275.31;;;22.79;54.83
45813;BME280;31519;45.408;10.962;2023-09-30T00:08:13;101272.75;;;22.63;55.43
45813;BME280;31519;45.408;10.962;2023-09-30T00:10:40;101272.69;;;22.60;55.43
45813;BME280;31519;45.408;10.962;2023-09-30T00:13:09;101270.25;;;22.77;54.72
45813;BME280;31519;45.408;10.962;2023-09-30T00:15:37;101257.78;;;22.73;54.88
45813;BME280;31519;45.408;10.962;2023-09-30T00:18:05;101257.28;;;22.67;55.21
45813;BME280;31519;45.408;10.962;2023-09-30T00:20:33;101249.50;;;22.66;55.61
45813;BME280;31519;45.408;10.962;2023-09-30T00:23:01;101252.91;;;22.59;55.80
45813;BME280;31519;45.408;10.962;2023-09-30T00:25:29;101257.59;;;22.62;55.43
45813;BME280;31519;45.408;10.962;2023-09-30T00:27:57;101252.56;;;22.64;55.82
45813;BME280;31519;45.408;10.962;2023-09-30T00:30:25;101251.28;;;22.54;56.20
45813;BME280;31519;45.408;10.962;2023-09-30T00:32:54;101253.16;;;22.50;56.02
45813;BME280;31519;45.408;10.962;2023-09-30T00:35:23;101252.84;;;22.55;56.06
45813;BME280;31519;45.408;10.962;2023-09-30T00:37:51;101251.38;;;22.62;55.85
45813;BME280;31519;45.408;10.962;2023-09-30T00:40:19;101252.13;;;22.59;55.67
45813;BME280;31519;45.408;10.962;2023-09-30T00:42:47;101260.53;;;22.76;55.25
45813;BME280;31519;45.408;10.962;2023-09-30T00:45:15;101256.38;;;22.60;55.52
45813;BME280;31519;45.408;10.962;2023-09-30T00:47:43;101254.22;;;22.42;56.10
45813;BME280;31519;45.408;10.962;2023-09-30T00:50:11;101259.06;;;22.30;56.70
45813;BME280;31519;45.408;10.962;2023-09-30T00:52:41;101261.63;;;22.45;56.49
45813;BME280;31519;45.408;10.962;2023-09-30T00:55:10;101255.47;;;22.22;57.11
45813;BME280;31519;45.408;10.962;2023-09-30T00:57:38;101261.84;;;22.10;57.21
45813;BME280;31519;45.408;10.962;2023-09-30T01:00:07;101258.47;;;22.17;57.12
45813;BME280;31519;45.408;10.962;2023-09-30T01:02:40;101262.03;;;22.21;56.99
45813;BME280;31519;45.408;10.962;2023-09-30T01:05:09;101263.06;;;22.13;57.23
45813;BME280;31519;45.408;10.962;2023-09-30T01:07:37;101263.47;;;22.15;56.79
45813;BME280;31519;45.408;10.962;2023-09-30T01:10:05;101262.97;;;21.87;58.19
45813;BME280;31519;45.408;10.962;2023-09-30T01:12:34;101265.69;;;21.87;58.14
45813;BME280;31519;45.408;10.962;2023-09-30T01:15:02;101272.53;;;22.00;58.07
45813;BME280;31519;45.408;10.962;2023-09-30T01:17:35;101266.38;;;22.03;57.75
45813;BME280;31519;45.408;10.962;2023-09-30T01:20:04;101271.81;;;22.03;57.54
45813;BME280;31519;45.408;10.962;2023-09-30T01:22:34;101265.34;;;22.11;57.26
45813;BME280;31519;45.408;10.962;2023-09-30T01:25:02;101267.34;;;22.14;56.81
45813;BME280;31519;45.408;10.962;2023-09-30T01:27:31;101255.59;;;22.06;57.10
45813;BME280;31519;45.408;10.962;2023-09-30T01:29:59;101258.84;;;22.16;56.87
45813;BME280;31519;45.408;10.962;2023-09-30T01:32:27;101262.47;;;22.00;57.23
45813;BME280;31519;45.408;10.962;2023-09-30T01:34:55;101256.97;;;21.97;56.99
45813;BME280;31519;45.408;10.962;2023-09-30T01:37:26;101254.16;;;22.13;56.67
45813;BME280;31519;45.408;10.962;2023-09-30T01:39:54;101249.16;;;22.18;56.02
45813;BME280;31519;45.408;10.962;2023-09-30T01:42:23;101236.69;;;22.36;55.81
45813;BME280;31519;45.408;10.962;2023-09-30T01:44:50;101244.53;;;22.19;56.53
45813;BME280;31519;45.408;10.962;2023-09-30T01:47:19;101245.69;;;22.18;56.49
45813;BME280;31519;45.408;10.962;2023-09-30T01:49:46;101248.25;;;22.33;56.33
45813;BME280;31519;45.408;10.962;2023-09-30T01:52:16;101249.13;;;22.15;56.85
45813;BME280;31519;45.408;10.962;2023-09-30T01:54:45;101250.66;;;22.12;56.99
45813;BME280;31519;45.408;10.962;2023-09-30T01:57:14;101253.84;;;21.95;57.54
45813;BME280;31519;45.408;10.962;2023-09-30T01:59:42;101254.69;;;21.99;57.86
45813;BME280;31519;45.408;10.962;2023-09-30T02:02:11;101239.84;;;21.93;58.21
45813;BME280;31519;45.408;10.962;2023-09-30T02:04:39;101236.06;;;21.97;58.12
45813;BME280;31519;45.408;10.962;2023-09-30T02:07:08;101240.88;;;21.85;58.80
45813;BME280;31519;45.408;10.962;2023-09-30T02:09:35;101244.75;;;21.64;59.32
45813;BME280;31519;45.408;10.962;2023-09-30T02:12:04;101247.78;;;21.82;58.76
45813;BME280;31519;45.408;10.962;2023-09-30T02:14:32;101242.66;;;21.77;59.29
45813;BME280;31519;45.408;10.962;2023-09-30T02:17:00;101232.22;;;21.98;58.46
45813;BME280;31519;45.408;10.962;2023-09-30T02:19:28;101237.63;;;21.98;58.47
45813;BME280;31519;45.408;10.962;2023-09-30T02:21:58;101230.50;;;21.90;58.60
45813;BME280;31519;45.408;10.962;2023-09-30T02:24:27;101235.94;;;21.90;58.16
45813;BME280;31519;45.408;10.962;2023-09-30T02:26:55;101239.03;;;21.92;58.23
45813;BME280;31519;45.408;10.962;2023-09-30T02:29:23;101239.72;;;21.86;58.37
45813;BME280;31519;45.408;10.962;2023-09-30T02:31:51;101235.78;;;21.83;58.21
45813;BME280;31519;45.408;10.962;2023-09-30T02:34:19;101243.53;;;21.81;58.40
45813;BME280;31519;45.408;10.962;2023-09-30T02:36:47;101240.91;;;21.65;58.80
45813;BME280;31519;45.408;10.962;2023-09-30T02:39:14;101231.88;;;21.58;59.12
45813;BME280;31519;45.408;10.962;2023-09-30T02:41:44;101228.88;;;21.63;58.79
45813;BME280;31519;45.408;10.962;2023-09-30T02:44:12;101233.03;;;21.80;58.31
45813;BME280;31519;45.408;10.962;2023-09-30T02:46:41;101232.47;;;21.71;58.56
45813;BME280;31519;45.408;10.962;2023-09-30T02:49:09;101229.50;;;21.56;59.27
45813;BME280;31519;45.408;10.962;2023-09-30T02:51:37;101228.66;;;21.52;59.37
45813;BME280;31519;45.408;10.962;2023-09-30T02:54:05;101225.75;;;21.42;59.63
45813;BME280;31519;45.408;10.962;2023-09-30T02:56:33;101231.31;;;21.49;59.38
45813;BME280;31519;45.408;10.962;2023-09-30T02:59:01;101231.25;;;21.68;58.57
45813;BME280;31519;45.408;10.962;2023-09-30T03:01:30;101227.88;;;21.52;58.88
45813;BME280;31519;45.408;10.962;2023-09-30T03:03:58;101231.50;;;21.59;58.72
45813;BME280;31519;45.408;10.962;2023-09-30T03:06:27;101220.28;;;21.38;59.41
45813;BME280;31519;45.408;10.962;2023-09-30T03:08:55;101226.25;;;21.47;59.45
45813;BME280;31519;45.408;10.962;2023-09-30T03:11:23;101218.28;;;21.35;59.53
45813;BME280;31519;45.408;10.962;2023-09-30T03:13:51;101216.91;;;21.45;59.69
45813;BME280;31519;45.408;10.962;2023-09-30T03:16:19;101217.59;;;21.61;58.91
45813;BME280;31519;45.408;10.962;2023-09-30T03:18:48;101216.13;;;21.44;59.56
45813;BME280;31519;45.408;10.962;2023-09-30T03:21:17;101220.56;;;21.33;59.73
45813;BME280;31519;45.408;10.962;2023-09-30T03:23:45;101212.22;;;21.42;59.44
45813;BME280;31519;45.408;10.962;2023-09-30T03:26:14;101209.44;;;21.38;59.68
45813;BME280;31519;45.408;10.962;2023-09-30T03:28:43;101211.00;;;21.39;59.68
45813;BME280;31519;45.408;10.962;2023-09-30T03:31:11;101208.53;;;21.31;60.08
45813;BME280;31519;45.408;10.962;2023-09-30T03:33:38;101209.91;;;21.21;60.44
45813;BME280;31519;45.408;10.962;2023-09-30T03:36:08;101207.31;;;21.28;60.10
45813;BME280;31519;45.408;10.962;2023-09-30T03:38:36;101218.44;;;21.23;60.30
45813;BME280;31519;45.408;10.962;2023-09-30T03:41:05;101223.50;;;21.25;60.09
45813;BME280;31519;45.408;10.962;2023-09-30T03:43:35;101214.81;;;21.15;60.57
45813;BME280;31519;45.408;10.962;2023-09-30T03:46:08;101211.75;;;21.17;60.78
45813;BME280;31519;45.408;10.962;2023-09-30T03:48:37;101209.81;;;21.17;60.73
45813;BME280;31519;45.408;10.962;2023-09-30T03:51:13;101210.00;;;21.09;60.87
45813;BME280;31519;45.408;10.962;2023-09-30T03:53:42;101209.09;;;21.20;60.97
45813;BME280;31519;45.408;10.962;2023-09-30T03:56:11;101210.00;;;21.28;60.45
45813;BME280;31519;45.408;10.962;2023-09-30T03:58:39;101206.94;;;21.10;60.94
45813;BME280;31519;45.408;10.962;2023-09-30T04:01:09;101211.88;;;21.24;60.76
45813;BME280;31519;45.408;10.962;2023-09-30T04:03:41;101209.28;;;21.31;60.63
45813;BME280;31519;45.408;10.962;2023-09-30T04:06:11;101208.53;;;21.31;60.88
45813;BME280;31519;45.408;10.962;2023-09-30T04:08:39;101209.31;;;21.12;61.17
45813;BME280;31519;45.408;10.962;2023-09-30T04:11:08;101201.47;;;21.26;61.06
45813;BME280;31519;45.408;10.962;2023-09-30T04:13:38;101208.59;;;21.15;61.12
45813;BME280;31519;45.408;10.962;2023-09-30T04:16:06;101203.38;;;21.06;61.78
45813;BME280;31519;45.408;10.962;2023-09-30T04:18:34;101201.75;;;21.21;61.70
45813;BME280;31519;45.408;10.962;2023-09-30T04:21:02;101198.75;;;21.07;61.74
45813;BME280;31519;45.408;10.962;2023-09-30T04:23:30;101196.53;;;21.12;61.63
45813;BME280;31519;45.408;10.962;2023-09-30T04:25:58;101192.03;;;21.01;62.26
45813;BME280;31519;45.408;10.962;2023-09-30T04:28:26;101199.84;;;21.21;61.42
45813;BME280;31519;45.408;10.962;2023-09-30T04:30:55;101203.94;;;20.96;61.95
45813;BME280;31519;45.408;10.962;2023-09-30T04:33:24;101206.31;;;20.98;62.34
45813;BME280;31519;45.408;10.962;2023-09-30T04:35:53;101208.44;;;20.89;62.54
45813;BME280;31519;45.408;10.962;2023-09-30T04:38:20;101210.03;;;20.90;62.80
45813;BME280;31519;45.408;10.962;2023-09-30T04:40:48;101208.44;;;20.89;62.96
45813;BME280;31519;45.408;10.962;2023-09-30T04:43:19;101209.06;;;20.82;63.04
45813;BME280;31519;45.408;10.962;2023-09-30T04:45:47;101210.31;;;20.85;63.13
45813;BME280;31519;45.408;10.962;2023-09-30T04:48:17;101219.41;;;20.96;62.70
45813;BME280;31519;45.408;10.962;2023-09-30T04:50:45;101214.56;;;20.86;62.88
45813;BME280;31519;45.408;10.962;2023-09-30T04:53:13;101213.28;;;20.79;63.03
45813;BME280;31519;45.408;10.962;2023-09-30T04:55:41;101215.81;;;20.72;63.38
45813;BME280;31519;45.408;10.962;2023-09-30T04:58:09;101212.19;;;20.65;64.00
45813;BME280;31519;45.408;10.962;2023-09-30T05:00:37;101218.19;;;20.74;63.69
45813;BME280;31519;45.408;10.962;2023-09-30T05:03:05;101217.19;;;20.82;63.41
45813;BME280;31519;45.408;10.962;2023-09-30T05:05:33;101225.69;;;20.81;63.28
45813;BME280;31519;45.408;10.962;2023-09-30T05:08:01;101226.19;;;20.86;63.10
45813;BME280;31519;45.408;10.962;2023-09-30T05:10:30;101221.63;;;20.90;63.34
45813;BME280;31519;45.408;10.962;2023-09-30T05:12:58;101223.56;;;20.90;63.35
45813;BME280;31519;45.408;10.962;2023-09-30T05:15:26;101225.38;;;20.86;63.75
45813;BME280;31519;45.408;10.962;2023-09-30T05:17:56;101216.56;;;20.69;64.30
45813;BME280;31519;45.408;10.962;2023-09-30T05:20:25;101224.31;;;20.71;64.25
45813;BME280;31519;45.408;10.962;2023-09-30T05:22:53;101228.50;;;20.68;64.54
45813;BME280;31519;45.408;10.962;2023-09-30T05:25:21;101235.38;;;20.82;63.96
45813;BME280;31519;45.408;10.962;2023-09-30T05:27:54;101243.41;;;20.78;63.79
45813;BME280;31519;45.408;10.962;2023-09-30T05:30:22;101241.28;;;20.87;63.57
45813;BME280;31519;45.408;10.962;2023-09-30T05:32:51;101237.25;;;20.97;63.34
45813;BME280;31519;45.408;10.962;2023-09-30T05:35:20;101251.50;;;21.13;62.71
45813;BME280;31519;45.408;10.962;2023-09-30T05:37:50;101256.16;;;21.12;62.85
45813;BME280;31519;45.408;10.962;2023-09-30T05:40:23;101256.78;;;21.06;62.80
45813;BME280;31519;45.408;10.962;2023-09-30T05:42:53;101265.09;;;20.97;63.33
45813;BME280;31519;45.408;10.962;2023-09-30T05:45:22;101260.00;;;21.11;62.85
45813;BME280;31519;45.408;10.962;2023-09-30T05:48:02;101261.00;;;21.03;63.13
45813;BME280;31519;45.408;10.962;2023-09-30T05:50:34;101276.94;;;21.08;62.70
45813;BME280;31519;45.408;10.962;2023-09-30T05:53:04;101276.56;;;21.26;62.74
45813;BME280;31519;45.408;10.962;2023-09-30T05:55:32;101281.59;;;21.27;62.96
45813;BME280;31519;45.408;10.962;2023-09-30T05:58:01;101281.88;;;21.22;62.65
45813;BME280;31519;45.408;10.962;2023-09-30T06:00:29;101281.88;;;21.22;62.90
45813;BME280;31519;45.408;10.962;2023-09-30T06:02:59;101288.75;;;21.35;62.24
45813;BME280;31519;45.408;10.962;2023-09-30T06:05:28;101293.53;;;21.42;62.28
45813;BME280;31519;45.408;10.962;2023-09-30T06:07:59;101295.31;;;21.53;61.99
45813;BME280;31519;45.408;10.962;2023-09-30T06:10:31;101289.94;;;21.76;60.55
45813;BME280;31519;45.408;10.962;2023-09-30T06:12:59;101288.28;;;21.72;60.91
45813;BME280;31519;45.408;10.962;2023-09-30T06:15:28;101290.28;;;21.75;60.54
45813;BME280;31519;45.408;10.962;2023-09-30T06:17:56;101292.63;;;21.76;60.28
45813;BME280;31519;45.408;10.962;2023-09-30T06:20:26;101285.16;;;21.92;59.64
45813;BME280;31519;45.408;10.962;2023-09-30T06:22:55;101285.47;;;22.10;57.50
45813;BME280;31519;45.408;10.962;2023-09-30T06:25:23;101275.00;;;22.31;57.53
45813;BME280;31519;45.408;10.962;2023-09-30T06:27:52;101274.16;;;22.27;57.25
45813;BME280;31519;45.408;10.962;2023-09-30T06:30:21;101266.44;;;22.06;57.96
45813;BME280;31519;45.408;10.962;2023-09-30T06:32:49;101263.59;;;22.22;57.62
45813;BME280;31519;45.408;10.962;2023-09-30T06:35:17;101263.25;;;22.01;57.96
45813;BME280;31519;45.408;10.962;2023-09-30T06:37:49;101262.88;;;22.02;57.79
45813;BME280;31519;45.408;10.962;2023-09-30T06:40:18;101266.63;;;22.17;57.45
45813;BME280;31519;45.408;10.962;2023-09-30T06:42:46;101276.13;;;22.30;56.46
45813;BME280;31519;45.408;10.962;2023-09-30T06:45:14;101269.41;;;22.47;54.91
45813;BME280;31519;45.408;10.962;2023-09-30T06:47:43;101281.44;;;22.72;53.45
45813;BME280;31519;45.408;10.962;2023-09-30T06:50:14;101275.78;;;22.84;52.88
45813;BME280;31519;45.408;10.962;2023-09-30T06:52:45;101283.47;;;23.09;51.64
45813;BME280;31519;45.408;10.962;2023-09-30T06:55:13;101272.00;;;23.22;51.50
45813;BME280;31519;45.408;10.962;2023-09-30T06:57:41;101276.78;;;23.32;50.49
45813;BME280;31519;45.408;10.962;2023-09-30T07:00:10;101272.19;;;23.40;50.08
45813;BME280;31519;45.408;10.962;2023-09-30T07:02:39;101270.16;;;23.33;49.90
45813;BME280;31519;45.408;10.962;2023-09-30T07:05:09;101264.13;;;23.47;49.50
45813;BME280;31519;45.408;10.962;2023-09-30T07:07:37;101274.78;;;23.63;48.72
45813;BME280;31519;45.408;10.962;2023-09-30T07:10:07;101281.97;;;23.81;48.45
45813;BME280;31519;45.408;10.962;2023-09-30T07:12:35;101278.59;;;23.92;47.89
45813;BME280;31519;45.408;10.962;2023-09-30T07:15:05;101283.47;;;24.16;47.05
45813;BME280;31519;45.408;10.962;2023-09-30T07:17:33;101292.84;;;24.18;46.16
45813;BME280;31519;45.408;10.962;2023-09-30T07:20:02;101307.38;;;24.40;45.71
45813;BME280;31519;45.408;10.962;2023-09-30T07:22:33;101310.75;;;24.78;45.51
45813;BME280;31519;45.408;10.962;2023-09-30T07:25:19;101316.31;;;24.88;45.36
45813;BME280;31519;45.408;10.962;2023-09-30T07:27:47;101320.22;;;24.94;44.39
45813;BME280;31519;45.408;10.962;2023-09-30T07:30:15;101328.44;;;25.01;44.28
45813;BME280;31519;45.408;10.962;2023-09-30T07:32:43;101322.66;;;25.17;44.10
45813;BME280;31519;45.408;10.962;2023-09-30T07:35:12;101332.84;;;25.31;43.96
45813;BME280;31519;45.408;10.962;2023-09-30T07:37:43;101335.22;;;25.39;43.49
45813;BME280;31519;45.408;10.962;2023-09-30T07:40:11;101336.41;;;25.42;44.16
45813;BME280;31519;45.408;10.962;2023-09-30T07:42:39;101329.88;;;25.61;43.72
45813;BME280;31519;45.408;10.962;2023-09-30T07:45:08;101330.13;;;25.31;43.61
45813;BME280;31519;45.408;10.962;2023-09-30T07:47:36;101331.91;;;24.98;43.97
45813;BME280;31519;45.408;10.962;2023-09-30T07:50:04;101341.16;;;25.59;43.55
45813;BME280;31519;45.408;10.962;2023-09-30T07:52:38;101333.44;;;25.79;42.82
45813;BME280;31519;45.408;10.962;2023-09-30T07:55:10;101337.69;;;25.73;43.37
45813;BME280;31519;45.408;10.962;2023-09-30T07:57:39;101338.50;;;25.94;42.88
45813;BME280;31519;45.408;10.962;2023-09-30T08:00:09;101337.78;;;26.22;42.22
45813;BME280;31519;45.408;10.962;2023-09-30T08:02:43;101338.13;;;26.17;41.58
45813;BME280;31519;45.408;10.962;2023-09-30T08:05:12;101333.84;;;26.59;41.25
45813;BME280;31519;45.408;10.962;2023-09-30T08:07:40;101332.34;;;26.29;41.08
45813;BME280;31519;45.408;10.962;2023-09-30T08:10:08;101335.47;;;26.24;41.67
45813;BME280;31519;45.408;10.962;2023-09-30T08:12:41;101340.88;;;26.70;41.29
45813;BME280;31519;45.408;10.962;2023-09-30T08:15:10;101345.13;;;27.00;40.89
45813;BME280;31519;45.408;10.962;2023-09-30T08:17:41;101338.16;;;26.49;40.25
45813;BME280;31519;45.408;10.962;2023-09-30T08:20:10;101339.28;;;25.91;41.47
45813;BME280;31519;45.408;10.962;2023-09-30T08:22:39;101343.59;;;25.92;41.85
45813;BME280;31519;45.408;10.962;2023-09-30T08:25:07;101342.47;;;26.22;41.53
45813;BME280;31519;45.408;10.962;2023-09-30T08:27:36;101343.19;;;26.08;41.44
45813;BME280;31519;45.408;10.962;2023-09-30T08:30:05;101348.31;;;26.27;41.48
45813;BME280;31519;45.408;10.962;2023-09-30T08:32:36;101349.91;;;26.42;41.31
45813;BME280;31519;45.408;10.962;2023-09-30T08:35:05;101352.53;;;27.17;40.02
45813;BME280;31519;45.408;10.962;2023-09-30T08:37:33;101358.69;;;27.35;40.21
45813;BME280;31519;45.408;10.962;2023-09-30T08:40:01;101366.28;;;27.86;39.66
45813;BME280;31519;45.408;10.962;2023-09-30T08:42:32;101352.41;;;27.42;39.87
45813;BME280;31519;45.408;10.962;2023-09-30T08:45:03;101345.97;;;26.75;41.28
45813;BME280;31519;45.408;10.962;2023-09-30T08:47:34;101336.59;;;26.69;41.81
45813;BME280;31519;45.408;10.962;2023-09-30T08:50:04;101342.06;;;26.76;42.24
45813;BME280;31519;45.408;10.962;2023-09-30T08:52:34;101336.75;;;27.46;41.20
45813;BME280;31519;45.408;10.962;2023-09-30T08:55:08;101338.44;;;27.15;40.93
45813;BME280;31519;45.408;10.962;2023-09-30T08:57:36;101341.44;;;27.52;40.00
45813;BME280;31519;45.408;10.962;2023-09-30T09:00:08;101340.97;;;27.68;39.62
45813;BME280;31519;45.408;10.962;2023-09-30T09:02:40;101340.56;;;28.28;38.80
45813;BME280;31519;45.408;10.962;2023-09-30T09:05:08;101337.50;;;28.63;38.02
45813;BME280;31519;45.408;10.962;2023-09-30T09:07:37;101334.44;;;28.06;39.23
45813;BME280;31519;45.408;10.962;2023-09-30T09:10:11;101346.81;;;28.77;38.12
45813;BME280;31519;45.408;10.962;2023-09-30T09:12:42;101344.75;;;28.43;38.80
45813;BME280;31519;45.408;10.962;2023-09-30T09:15:21;101344.50;;;28.27;39.30
45813;BME280;31519;45.408;10.962;2023-09-30T09:17:49;101349.59;;;27.66;40.54
45813;BME280;31519;45.408;10.962;2023-09-30T09:20:21;101345.16;;;27.83;39.77
45813;BME280;31519;45.408;10.962;2023-09-30T09:22:50;101339.50;;;28.15;39.07
45813;BME280;31519;45.408;10.962;2023-09-30T09:25:22;101329.28;;;28.23;38.64
45813;BME280;31519;45.408;10.962;2023-09-30T09:27:51;101333.56;;;28.64;38.21
45813;BME280;31519;45.408;10.962;2023-09-30T09:30:20;101329.22;;;28.71;38.93
45813;BME280;31519;45.408;10.962;2023-09-30T09:33:03;101327.28;;;27.64;40.63
45813;BME280;31519;45.408;10.962;2023-09-30T09:35:33;101332.34;;;27.69;40.43
45813;BME280;31519;45.408;10.962;2023-09-30T09:38:06;101334.84;;;28.08;40.10
45813;BME280;31519;45.408;10.962;2023-09-30T09:40:35;101340.59;;;28.73;39.00
45813;BME280;31519;45.408;10.962;2023-09-30T09:43:04;101339.53;;;28.11;39.50
45813;BME280;31519;45.408;10.962;2023-09-30T09:45:34;101351.53;;;28.28;39.91
45813;BME280;31519;45.408;10.962;2023-09-30T09:48:02;101343.50;;;28.00;40.46
45813;BME280;31519;45.408;10.962;2023-09-30T09:50:33;101339.81;;;28.24;40.45
45813;BME280;31519;45.408;10.962;2023-09-30T09:53:00;101345.09;;;28.49;40.01
45813;BME280;31519;45.408;10.962;2023-09-30T09:55:30;101357.38;;;29.12;38.23
45813;BME280;31519;45.408;10.962;2023-09-30T09:57:58;101352.97;;;28.43;39.38
45813;BME280;31519;45.408;10.962;2023-09-30T10:00:30;101354.66;;;28.75;38.74
45813;BME280;31519;45.408;10.962;2023-09-30T10:02:59;101356.91;;;28.39;39.80
45813;BME280;31519;45.408;10.962;2023-09-30T10:05:27;101352.09;;;28.53;39.27
45813;BME280;31519;45.408;10.962;2023-09-30T10:08:14;101359.28;;;29.19;37.52
45813;BME280;31519;45.408;10.962;2023-09-30T10:10:45;101362.19;;;28.63;38.47
45813;BME280;31519;45.408;10.962;2023-09-30T10:21:40;101333.59;;;29.02;38.28
45813;BME280;31519;45.408;10.962;2023-09-30T10:24:28;101341.16;;;29.85;36.65
45813;BME280;31519;45.408;10.962;2023-09-30T10:30:08;101346.44;;;30.00;36.89
45813;BME280;31519;45.408;10.962;2023-09-30T10:35:20;101347.09;;;30.07;36.39
45813;BME280;31519;45.408;10.962;2023-09-30T10:37:49;101340.34;;;29.28;37.87
45813;BME280;31519;45.408;10.962;2023-09-30T10:40:27;101343.22;;;29.78;37.15
45813;BME280;31519;45.408;10.962;2023-09-30T10:42:55;101346.22;;;30.14;36.45
45813;BME280;31519;45.408;10.962;2023-09-30T10:51:00;101329.72;;;32.11;33.46
45813;BME280;31519;45.408;10.962;2023-09-30T10:53:29;101324.63;;;32.09;33.24
45813;BME280;31519;45.408;10.962;2023-09-30T10:55:59;101319.72;;;31.85;33.48
45813;BME280;31519;45.408;10.962;2023-09-30T10:58:46;101311.69;;;31.90;33.58
45813;BME280;31519;45.408;10.962;2023-09-30T11:01:19;101312.88;;;31.01;34.38
45813;BME280;31519;45.408;10.962;2023-09-30T11:03:48;101312.19;;;30.94;35.62
45813;BME280;31519;45.408;10.962;2023-09-30T11:06:20;101306.34;;;31.67;34.81
45813;BME280;31519;45.408;10.962;2023-09-30T11:08:53;101297.53;;;30.80;35.96
45813;BME280;31519;45.408;10.962;2023-09-30T11:11:42;101300.16;;;30.45;36.77
45813;BME280;31519;45.408;10.962;2023-09-30T11:16:45;101293.38;;;30.72;37.28
45813;BME280;31519;45.408;10.962;2023-09-30T11:19:13;101286.16;;;30.98;36.44
45813;BME280;31519;45.408;10.962;2023-09-30T11:21:43;101273.78;;;31.10;36.74
45813;BME280;31519;45.408;10.962;2023-09-30T11:24:14;101268.84;;;31.01;36.56
45813;BME280;31519;45.408;10.962;2023-09-30T11:26:42;101263.56;;;30.05;37.31
45813;BME280;31519;45.408;10.962;2023-09-30T11:29:11;101274.59;;;30.24;37.62
45813;BME280;31519;45.408;10.962;2023-09-30T11:31:42;101269.66;;;30.98;36.33
45813;BME280;31519;45.408;10.962;2023-09-30T11:34:11;101266.47;;;31.72;35.72
45813;BME280;31519;45.408;10.962;2023-09-30T11:36:40;101259.44;;;31.71;35.33
45813;BME280;31519;45.408;10.962;2023-09-30T11:39:21;101257.84;;;31.53;35.29
45813;BME280;31519;45.408;10.962;2023-09-30T11:41:49;101265.78;;;31.67;35.50
45813;BME280;31519;45.408;10.962;2023-09-30T11:44:18;101266.50;;;32.78;34.68
45813;BME280;31519;45.408;10.962;2023-09-30T11:46:47;101261.16;;;32.42;34.21
45813;BME280;31519;45.408;10.962;2023-09-30T11:49:38;101261.44;;;33.18;33.48
45813;BME280;31519;45.408;10.962;2023-09-30T11:52:09;101249.16;;;33.44;32.97
45813;BME280;31519;45.408;10.962;2023-09-30T11:54:38;101249.41;;;32.95;33.14
45813;BME280;31519;45.408;10.962;2023-09-30T11:57:12;101243.97;;;33.33;33.12
45813;BME280;31519;45.408;10.962;2023-09-30T11:59:43;101250.97;;;32.55;33.85
45813;BME280;31519;45.408;10.962;2023-09-30T12:02:13;101245.66;;;32.48;33.99
45813;BME280;31519;45.408;10.962;2023-09-30T12:04:45;101257.00;;;32.66;34.23
45813;BME280;31519;45.408;10.962;2023-09-30T12:07:15;101255.06;;;31.37;35.67
45813;BME280;31519;45.408;10.962;2023-09-30T12:09:43;101255.69;;;31.45;35.20
45813;BME280;31519;45.408;10.962;2023-09-30T12:12:12;101254.38;;;31.33;35.17
45813;BME280;31519;45.408;10.962;2023-09-30T12:14:42;101256.41;;;30.93;36.16
45813;BME280;31519;45.408;10.962;2023-09-30T12:17:11;101257.88;;;31.17;35.90
45813;BME280;31519;45.408;10.962;2023-09-30T12:19:40;101247.00;;;31.30;34.97
45813;BME280;31519;45.408;10.962;2023-09-30T12:22:11;101254.88;;;31.28;34.86
45813;BME280;31519;45.408;10.962;2023-09-30T12:24:41;101253.63;;;31.49;34.21
45813;BME280;31519;45.408;10.962;2023-09-30T12:27:11;101253.16;;;30.78;35.16
45813;BME280;31519;45.408;10.962;2023-09-30T12:29:39;101249.13;;;31.03;34.64
45813;BME280;31519;45.408;10.962;2023-09-30T12:32:08;101249.84;;;32.07;33.15
45813;BME280;31519;45.408;10.962;2023-09-30T12:34:38;101253.81;;;32.51;32.72
45813;BME280;31519;45.408;10.962;2023-09-30T12:37:08;101254.16;;;32.53;32.91
45813;BME280;31519;45.408;10.962;2023-09-30T12:39:37;101255.97;;;33.14;32.43
45813;BME280;31519;45.408;10.962;2023-09-30T12:42:06;101257.00;;;32.21;33.19
45813;BME280;31519;45.408;10.962;2023-09-30T12:44:37;101254.66;;;31.39;34.87
45813;BME280;31519;45.408;10.962;2023-09-30T12:47:08;101249.25;;;32.00;33.27
45813;BME280;31519;45.408;10.962;2023-09-30T12:49:36;101249.88;;;32.94;32.28
45813;BME280;31519;45.408;10.962;2023-09-30T12:52:06;101236.72;;;32.28;32.62
45813;BME280;31519;45.408;10.962;2023-09-30T12:54:35;101239.59;;;32.24;32.48
45813;BME280;31519;45.408;10.962;2023-09-30T12:57:05;101233.41;;;32.49;31.56
45813;BME280;31519;45.408;10.962;2023-09-30T12:59:34;101226.44;;;32.16;32.42
45813;BME280;31519;45.408;10.962;2023-09-30T13:02:03;101227.50;;;32.34;31.39
45813;BME280;31519;45.408;10.962;2023-09-30T13:04:34;101217.13;;;32.26;31.40
45813;BME280;31519;45.408;10.962;2023-09-30T13:07:03;101215.31;;;32.48;30.24
45813;BME280;31519;45.408;10.962;2023-09-30T13:09:30;101216.53;;;32.88;30.42
45813;BME280;31519;45.408;10.962;2023-09-30T13:11:59;101220.97;;;33.11;31.58
45813;BME280;31519;45.408;10.962;2023-09-30T13:14:28;101221.81;;;32.95;31.33